createdAt,value
2022-12-25T00:00:55.564Z,5.57
2022-12-25T00:03:22.442Z,4.05
2022-12-25T00:05:49.120Z,2.55
2022-12-25T00:08:15.751Z,5.15
2022-12-25T00:10:45.177Z,4.40
2022-12-25T00:13:12.267Z,6.60
2022-12-25T00:15:41.903Z,5.32
2022-12-25T00:18:08.700Z,4.63
2022-12-25T00:20:36.380Z,5.25
2022-12-25T00:23:02.962Z,4.50
2022-12-25T00:25:29.658Z,5.32
2022-12-25T00:27:56.231Z,4.72
2022-12-25T00:30:22.874Z,4.68
2022-12-25T00:32:49.513Z,6.78
2022-12-25T00:35:16.172Z,6.00
2022-12-25T00:37:42.809Z,5.43
2022-12-25T00:40:09.996Z,5.82
2022-12-25T00:42:36.595Z,5.63
2022-12-25T00:45:03.540Z,5.28
2022-12-25T00:47:30.355Z,7.40
2022-12-25T00:49:56.950Z,6.78
2022-12-25T00:52:23.545Z,6.32
2022-12-25T00:54:50.093Z,8.98
2022-12-25T00:57:16.713Z,5.38
2022-12-25T00:59:43.320Z,5.63
2022-12-25T01:02:25.566Z,8.02
2022-12-25T01:04:57.014Z,6.20
2022-12-25T01:07:26.388Z,5.90
2022-12-25T01:10:11.705Z,6.15
2022-12-25T01:12:41.660Z,3.58
2022-12-25T01:15:10.153Z,5.47
2022-12-25T01:17:36.888Z,5.18
2022-12-25T01:20:04.299Z,6.70
2022-12-25T01:22:30.909Z,7.15
2022-12-25T01:24:57.536Z,6.38
2022-12-25T01:27:24.156Z,5.18
2022-12-25T01:29:50.772Z,6.45
2022-12-25T01:32:17.419Z,4.97
2022-12-25T01:34:44.245Z,6.55
2022-12-25T01:37:11.226Z,4.25
2022-12-25T01:39:37.925Z,4.65
2022-12-25T01:42:04.608Z,5.95
2022-12-25T01:44:37.142Z,5.13
2022-12-25T01:47:05.696Z,4.07
2022-12-25T01:49:34.751Z,6.50
2022-12-25T01:52:24.783Z,6.03
2022-12-25T01:54:57.936Z,5.32
2022-12-25T01:59:56.340Z,4.25
2022-12-25T02:02:23.509Z,5.70
2022-12-25T02:04:58.478Z,5.22
2022-12-25T02:07:26.978Z,4.07
2022-12-25T02:09:53.865Z,3.90
2022-12-25T02:12:25.977Z,7.18
2022-12-25T02:15:01.125Z,5.30
2022-12-25T02:17:50.147Z,5.05
2022-12-25T02:20:22.461Z,5.72
2022-12-25T02:23:17.589Z,3.43
2022-12-25T02:26:09.303Z,3.75
2022-12-25T02:28:45.965Z,3.70
2022-12-25T02:31:12.802Z,3.15
2022-12-25T02:34:03.048Z,4.57
2022-12-25T02:36:46.167Z,4.10
2022-12-25T02:39:46.484Z,7.40
2022-12-25T02:42:21.405Z,6.32
2022-12-25T02:45:09.786Z,4.97
2022-12-25T02:47:56.700Z,4.78
2022-12-25T02:50:44.149Z,3.47
2022-12-25T02:53:30.662Z,3.88
2022-12-25T02:56:17.045Z,4.75
2022-12-25T02:59:05.096Z,4.63
2022-12-25T03:01:53.151Z,4.95
2022-12-25T03:04:41.341Z,4.57
2022-12-25T03:07:20.602Z,4.22
2022-12-25T03:10:15.855Z,4.28
2022-12-25T03:13:25.936Z,3.50
2022-12-25T03:16:11.045Z,4.70
2022-12-25T03:18:37.888Z,4.28
2022-12-25T03:21:40.234Z,4.43
2022-12-25T03:24:25.701Z,6.13
2022-12-25T03:26:55.977Z,3.40
2022-12-25T03:29:47.087Z,3.53
2022-12-25T03:32:37.704Z,3.70
2022-12-25T03:35:47.627Z,4.53
2022-12-25T03:38:47.939Z,5.55
2022-12-25T03:42:01.990Z,4.05
2022-12-25T03:45:25.607Z,6.57
2022-12-25T03:48:13.045Z,4.63
2022-12-25T03:51:06.668Z,3.63
2022-12-25T03:54:02.766Z,5.53
2022-12-25T03:56:49.501Z,4.18
2022-12-25T03:59:39.821Z,4.28
2022-12-25T04:02:25.319Z,5.30
2022-12-25T04:05:10.554Z,4.82
2022-12-25T04:07:55.512Z,5.97
2022-12-25T04:10:40.862Z,4.35
2022-12-25T04:13:26.197Z,4.97
2022-12-25T04:16:12.304Z,3.47
2022-12-25T04:18:57.467Z,3.85
2022-12-25T04:21:43.370Z,6.10
2022-12-25T04:24:29.452Z,4.55
2022-12-25T04:27:14.740Z,5.50
2022-12-25T04:30:00.009Z,4.03
2022-12-25T04:32:45.338Z,4.72
2022-12-25T04:35:30.628Z,4.20
2022-12-25T04:37:57.340Z,4.00
2022-12-25T04:40:24.131Z,4.20
2022-12-25T04:42:51.736Z,3.53
2022-12-25T04:45:18.571Z,3.30
2022-12-25T04:47:45.156Z,4.00
2022-12-25T04:50:12.016Z,5.50
2022-12-25T04:52:41.091Z,4.80
2022-12-25T04:55:09.297Z,4.72
2022-12-25T04:57:36.889Z,4.80
2022-12-25T05:00:05.247Z,6.30
2022-12-25T05:02:32.298Z,6.10
2022-12-25T05:04:59.035Z,5.32
2022-12-25T05:07:25.709Z,4.93
2022-12-25T05:09:52.323Z,2.97
2022-12-25T05:12:18.965Z,4.70
2022-12-25T05:14:45.558Z,5.78
2022-12-25T05:17:12.150Z,5.80
2022-12-25T05:19:38.726Z,3.15
2022-12-25T05:22:05.347Z,4.28
2022-12-25T05:24:32.061Z,3.28
2022-12-25T05:26:58.704Z,2.80
2022-12-25T05:29:25.409Z,4.05
2022-12-25T05:31:52.100Z,3.45
2022-12-25T05:34:18.747Z,5.85
2022-12-25T05:36:45.384Z,5.40
2022-12-25T05:39:12.020Z,4.18
2022-12-25T05:41:38.681Z,6.60
2022-12-25T05:44:05.306Z,4.85
2022-12-25T05:46:32.085Z,4.85
2022-12-25T05:48:58.759Z,3.65
2022-12-25T05:51:26.178Z,5.50
2022-12-25T05:53:52.995Z,5.00
2022-12-25T05:56:19.588Z,4.97
2022-12-25T05:58:46.219Z,4.72
2022-12-25T06:01:19.941Z,5.05
2022-12-25T06:03:46.949Z,4.13
2022-12-25T06:06:22.240Z,4.47
2022-12-25T06:08:48.960Z,4.80
2022-12-25T06:11:15.943Z,4.72
2022-12-25T06:13:43.438Z,3.72
2022-12-25T06:16:12.085Z,3.10
2022-12-25T06:18:41.421Z,4.25
2022-12-25T06:21:09.419Z,3.40
2022-12-25T06:23:37.260Z,4.40
2022-12-25T06:26:09.814Z,3.53
2022-12-25T06:28:36.962Z,4.05
2022-12-25T06:31:08.374Z,3.85
2022-12-25T06:33:36.024Z,6.95
2022-12-25T06:36:11.865Z,4.45
2022-12-25T06:38:38.492Z,4.15
2022-12-25T06:41:13.679Z,3.42
2022-12-25T06:43:40.608Z,3.72
2022-12-25T06:46:10.271Z,3.60
2022-12-25T06:48:38.069Z,3.95
2022-12-25T06:51:06.326Z,6.03
2022-12-25T06:53:39.983Z,3.70
2022-12-25T06:56:16.016Z,5.18
2022-12-25T06:58:44.073Z,4.35
2022-12-25T07:01:16.855Z,5.22
2022-12-25T07:03:46.273Z,5.32
2022-12-25T07:06:12.953Z,5.40
2022-12-25T07:08:39.687Z,6.95
2022-12-25T07:11:06.678Z,4.60
2022-12-25T07:13:33.592Z,5.55
2022-12-25T07:16:02.118Z,6.13
2022-12-25T07:18:29.367Z,4.63
2022-12-25T07:20:56.038Z,4.43
2022-12-25T07:23:23.435Z,5.90
2022-12-25T07:25:57.289Z,5.63
2022-12-25T07:28:24.134Z,8.38
2022-12-25T07:30:50.833Z,7.22
2022-12-25T07:33:17.526Z,9.93
2022-12-25T07:35:44.473Z,10.43
2022-12-25T07:38:11.431Z,10.27
2022-12-25T07:40:38.608Z,11.73
2022-12-25T07:43:05.323Z,4.97
2022-12-25T07:45:32.002Z,5.20
2022-12-25T07:48:04.323Z,7.47
2022-12-25T07:50:31.985Z,5.72
2022-12-25T07:52:58.575Z,8.23
2022-12-25T07:55:25.195Z,50.33
2022-12-25T07:57:52.536Z,31.50
2022-12-25T08:00:19.623Z,19.27
2022-12-25T08:02:49.882Z,13.65
2022-12-25T08:05:16.970Z,15.13
2022-12-25T08:07:43.665Z,14.90
2022-12-25T08:10:10.670Z,10.73
2022-12-25T08:12:37.278Z,11.43
2022-12-25T08:15:04.250Z,9.88
2022-12-25T08:17:30.831Z,8.23
2022-12-25T08:19:57.465Z,6.80
2022-12-25T08:22:24.044Z,6.25
2022-12-25T08:24:50.623Z,8.45
2022-12-25T08:27:17.259Z,7.60
2022-12-25T08:29:44.726Z,7.80
2022-12-25T08:32:11.361Z,7.18
2022-12-25T08:34:38.873Z,7.55
2022-12-25T08:37:05.514Z,7.97
2022-12-25T08:39:32.367Z,5.95
2022-12-25T08:41:58.983Z,10.38
2022-12-25T08:44:25.576Z,8.23
2022-12-25T08:46:52.237Z,6.78
2022-12-25T08:49:19.397Z,8.95
2022-12-25T08:51:46.220Z,5.68
2022-12-25T08:54:12.858Z,5.70
2022-12-25T08:56:39.520Z,6.97
2022-12-25T08:59:06.171Z,9.35
2022-12-25T09:01:32.936Z,6.20
2022-12-25T09:03:59.665Z,8.73
2022-12-25T09:06:26.287Z,6.15
2022-12-25T09:08:52.933Z,6.80
2022-12-25T09:11:20.316Z,4.85
2022-12-25T09:13:47.938Z,6.85
2022-12-25T09:16:18.943Z,8.93
2022-12-25T09:18:45.739Z,5.45
2022-12-25T09:21:14.167Z,7.68
2022-12-25T09:23:42.269Z,6.97
2022-12-25T09:26:12.853Z,4.70
2022-12-25T09:28:43.663Z,6.85
2022-12-25T09:31:13.491Z,8.38
2022-12-25T09:33:40.133Z,9.32
2022-12-25T09:36:08.329Z,10.35
2022-12-25T09:38:36.015Z,6.70
2022-12-25T09:41:07.783Z,8.88
2022-12-25T09:43:46.384Z,5.80
2022-12-25T09:46:17.300Z,6.85
2022-12-25T09:48:55.299Z,8.30
2022-12-25T09:51:24.594Z,7.90
2022-12-25T09:54:03.071Z,8.85
2022-12-25T09:56:29.688Z,7.00
2022-12-25T09:58:56.406Z,7.50
2022-12-25T10:01:50.446Z,5.88
2022-12-25T10:04:41.176Z,6.68
2022-12-25T10:07:37.065Z,6.50
2022-12-25T10:10:28.010Z,8.10
2022-12-25T10:13:24.095Z,6.97
2022-12-25T10:16:07.081Z,8.75
2022-12-25T10:18:51.607Z,7.53
2022-12-25T10:21:19.395Z,7.38
2022-12-25T10:23:54.770Z,6.50
2022-12-25T10:26:25.175Z,8.48
2022-12-25T10:29:14.823Z,7.53
2022-12-25T10:31:45.285Z,7.97
2022-12-25T10:34:13.231Z,9.02
2022-12-25T10:36:42.038Z,9.23
2022-12-25T10:39:16.363Z,6.60
2022-12-25T10:41:45.922Z,5.22
2022-12-25T10:44:20.803Z,7.28
2022-12-25T10:46:52.802Z,10.13
2022-12-25T10:49:23.031Z,6.82
2022-12-25T10:51:50.326Z,6.63
2022-12-25T10:54:35.792Z,7.07
2022-12-25T10:57:23.909Z,7.18
2022-12-25T10:59:57.242Z,7.03
2022-12-25T11:02:25.911Z,6.53
2022-12-25T11:05:02.447Z,9.65
2022-12-25T11:07:30.237Z,6.22
2022-12-25T11:10:05.955Z,6.10
2022-12-25T11:12:44.546Z,7.07
2022-12-25T11:15:36.429Z,6.45
2022-12-25T11:18:05.184Z,8.40
2022-12-25T11:20:33.264Z,5.53
2022-12-25T11:22:59.902Z,7.32
2022-12-25T11:25:28.163Z,6.13
2022-12-25T11:28:00.034Z,6.93
2022-12-25T11:30:29.852Z,5.28
2022-12-25T11:33:00.441Z,5.35
2022-12-25T11:35:31.993Z,5.55
2022-12-25T11:37:58.795Z,7.00
2022-12-25T11:40:30.871Z,6.00
2022-12-25T11:43:19.823Z,5.43
2022-12-25T11:46:00.239Z,9.10
2022-12-25T11:48:41.322Z,7.47
2022-12-25T11:51:10.039Z,8.05
2022-12-25T11:53:43.996Z,6.65
2022-12-25T11:56:29.317Z,5.82
2022-12-25T11:59:07.155Z,6.63
2022-12-25T12:01:42.869Z,6.60
2022-12-25T12:04:43.558Z,6.10
2022-12-25T12:07:17.338Z,5.85
2022-12-25T12:09:55.969Z,4.88
2022-12-25T12:12:28.874Z,4.90
2022-12-25T12:17:22.031Z,5.28
2022-12-25T12:19:48.773Z,5.97
2022-12-25T12:22:24.959Z,9.10
2022-12-25T12:24:58.552Z,6.72
2022-12-25T12:27:43.659Z,6.35
2022-12-25T12:30:34.780Z,6.43
2022-12-25T12:33:05.646Z,7.25
2022-12-25T12:35:36.109Z,5.57
2022-12-25T12:38:06.612Z,5.57
2022-12-25T12:40:40.841Z,8.85
2022-12-25T12:43:33.970Z,7.05
2022-12-25T12:46:19.169Z,6.38
2022-12-25T12:48:51.209Z,7.55
2022-12-25T12:51:32.899Z,6.13
2022-12-25T12:54:07.352Z,7.60
2022-12-25T12:56:33.961Z,6.15
2022-12-25T12:59:00.605Z,6.50
2022-12-25T13:01:27.305Z,6.93
2022-12-25T13:04:11.952Z,8.27
2022-12-25T13:06:51.536Z,6.15
2022-12-25T13:09:35.968Z,6.43
2022-12-25T13:12:08.262Z,6.60
2022-12-25T13:14:36.234Z,7.45
2022-12-25T13:17:07.613Z,7.22
2022-12-25T13:19:36.588Z,6.32
2022-12-25T13:22:06.853Z,7.65
2022-12-25T13:24:36.078Z,7.47
2022-12-25T13:27:21.710Z,7.38
2022-12-25T13:29:48.346Z,6.88
2022-12-25T13:32:22.999Z,7.82
2022-12-25T13:34:50.625Z,8.15
2022-12-25T13:37:20.875Z,6.63
2022-12-25T13:39:47.445Z,6.55
2022-12-25T13:42:17.499Z,7.03
2022-12-25T13:44:47.950Z,9.07
2022-12-25T13:47:22.572Z,7.75
2022-12-25T13:49:51.159Z,7.63
2022-12-25T13:52:24.312Z,7.68
2022-12-25T13:54:58.947Z,8.63
2022-12-25T13:57:30.322Z,8.02
2022-12-25T13:59:57.809Z,8.85
2022-12-25T14:02:30.275Z,6.38
2022-12-25T14:04:57.099Z,7.15
2022-12-25T14:07:24.769Z,9.63
2022-12-25T14:09:57.564Z,8.18
2022-12-25T14:12:25.863Z,7.72
2022-12-25T14:14:53.692Z,8.38
2022-12-25T14:17:21.194Z,7.25
2022-12-25T14:19:58.775Z,9.80
2022-12-25T14:22:30.075Z,9.57
2022-12-25T14:24:56.728Z,8.50
2022-12-25T14:27:28.779Z,7.72
2022-12-25T14:29:58.567Z,9.77
2022-12-25T14:32:29.141Z,6.68
2022-12-25T14:34:59.621Z,8.40
2022-12-25T14:37:30.613Z,8.40
2022-12-25T14:40:01.422Z,8.45
2022-12-25T14:42:30.925Z,8.73
2022-12-25T14:45:03.495Z,8.25
2022-12-25T14:47:32.417Z,7.47
2022-12-25T14:49:59.952Z,8.85
2022-12-25T14:52:31.687Z,7.57
2022-12-25T14:55:01.805Z,6.68
2022-12-25T14:57:34.442Z,10.23
2022-12-25T15:00:06.391Z,11.90
2022-12-25T15:02:45.849Z,9.45
2022-12-25T15:05:42.371Z,9.55
2022-12-25T15:08:08.921Z,9.48
2022-12-25T15:13:23.383Z,13.25
2022-12-25T15:15:49.991Z,8.57
2022-12-25T15:18:17.563Z,9.60
2022-12-25T15:20:44.276Z,8.88
2022-12-25T15:23:20.147Z,9.60
2022-12-25T15:25:47.625Z,6.43
2022-12-25T15:28:14.505Z,7.97
2022-12-25T15:30:41.416Z,6.65
2022-12-25T15:33:16.662Z,7.55
2022-12-25T15:35:44.482Z,8.50
2022-12-25T15:38:14.156Z,11.20
2022-12-25T15:40:41.742Z,9.57
2022-12-25T15:43:38.992Z,9.95
2022-12-25T15:45:58.903Z,7.97
2022-12-25T15:48:25.495Z,7.43
2022-12-25T15:50:52.133Z,7.50
2022-12-25T15:53:18.750Z,8.77
2022-12-25T15:55:45.366Z,8.52
2022-12-25T15:58:12.963Z,10.80
2022-12-25T16:00:39.617Z,8.15
2022-12-25T16:03:06.284Z,7.53
2022-12-25T16:05:33.122Z,9.13
2022-12-25T16:07:59.768Z,10.63
2022-12-25T16:10:26.351Z,10.32
2022-12-25T16:12:52.970Z,9.57
2022-12-25T16:15:19.569Z,8.90
2022-12-25T16:17:46.204Z,13.80
2022-12-25T16:20:13.245Z,11.73
2022-12-25T16:22:40.080Z,17.75
2022-12-25T16:25:13.811Z,13.90
2022-12-25T16:27:40.584Z,15.55
2022-12-25T16:30:08.003Z,15.93
2022-12-25T16:32:34.698Z,17.45
2022-12-25T16:35:01.366Z,15.93
2022-12-25T16:37:28.761Z,14.25
2022-12-25T16:39:55.493Z,19.27
2022-12-25T16:42:22.219Z,17.98
2022-12-25T16:44:48.832Z,17.65
2022-12-25T16:47:15.446Z,15.65
2022-12-25T16:49:42.133Z,16.42
2022-12-25T16:52:08.736Z,16.83
2022-12-25T16:54:35.432Z,12.85
2022-12-25T16:57:02.041Z,13.20
2022-12-25T16:59:32.993Z,11.98
2022-12-25T17:01:59.750Z,14.55
2022-12-25T17:04:27.879Z,15.68
2022-12-25T17:06:54.564Z,14.65
2022-12-25T17:09:21.175Z,12.57
2022-12-25T17:11:47.825Z,11.90
2022-12-25T17:14:14.429Z,12.57
2022-12-25T17:16:41.287Z,11.88
2022-12-25T17:19:16.380Z,11.90
2022-12-25T17:21:43.041Z,12.15
2022-12-25T17:24:09.962Z,13.10
2022-12-25T17:26:36.647Z,11.20
2022-12-25T17:29:03.847Z,35.75
2022-12-25T17:31:30.533Z,12.75
2022-12-25T17:33:57.832Z,12.63
2022-12-25T17:36:24.493Z,10.27
2022-12-25T17:38:51.260Z,10.40
2022-12-25T17:41:19.558Z,10.02
2022-12-25T17:43:47.329Z,11.75
2022-12-25T17:46:21.681Z,10.80
2022-12-25T17:48:51.877Z,11.57
2022-12-25T17:51:22.025Z,12.65
2022-12-25T17:53:51.573Z,14.77
2022-12-25T17:56:19.995Z,13.05
2022-12-25T17:58:51.803Z,9.48
2022-12-25T18:01:19.963Z,10.00
2022-12-25T18:03:47.151Z,12.27
2022-12-25T18:06:19.296Z,12.15
2022-12-25T18:08:47.004Z,11.93
2022-12-25T18:11:20.633Z,11.13
2022-12-25T18:13:50.015Z,11.25
2022-12-25T18:16:18.466Z,11.18
2022-12-25T18:18:51.381Z,10.65
2022-12-25T18:21:19.513Z,10.00
2022-12-25T18:23:46.533Z,7.65
2022-12-25T18:26:13.627Z,10.85
2022-12-25T18:28:42.488Z,8.23
2022-12-25T18:31:16.882Z,8.45
2022-12-25T18:33:44.723Z,11.07
2022-12-25T18:36:13.469Z,10.65
2022-12-25T18:38:40.559Z,11.02
2022-12-25T18:41:09.457Z,11.38
2022-12-25T18:43:52.840Z,11.02
2022-12-25T18:46:26.972Z,13.63
2022-12-25T18:48:55.424Z,22.08
2022-12-25T18:51:22.326Z,16.75
2022-12-25T18:53:49.026Z,13.93
2022-12-25T18:56:17.556Z,13.27
2022-12-25T18:58:45.520Z,13.68
2022-12-25T19:01:21.613Z,12.93
2022-12-25T19:03:49.856Z,18.35
2022-12-25T19:06:25.232Z,14.32
2022-12-25T19:08:52.276Z,10.65
2022-12-25T19:11:19.645Z,13.07
2022-12-25T19:13:46.573Z,11.30
2022-12-25T19:16:14.273Z,10.80
2022-12-25T19:18:40.956Z,12.90
2022-12-25T19:21:09.317Z,9.73
2022-12-25T19:23:37.856Z,10.07
2022-12-25T19:26:06.410Z,9.20
2022-12-25T19:28:33.185Z,11.10
2022-12-25T19:31:00.918Z,9.35
2022-12-25T19:33:27.939Z,9.70
2022-12-25T19:35:59.568Z,15.25
2022-12-25T19:38:26.394Z,12.32
2022-12-25T19:41:00.843Z,8.93
2022-12-25T19:43:33.676Z,11.60
2022-12-25T19:46:01.834Z,10.45
2022-12-25T19:48:29.490Z,8.88
2022-12-25T19:50:56.169Z,8.88
2022-12-25T19:53:26.058Z,7.82
2022-12-25T19:55:53.696Z,7.35
2022-12-25T19:58:21.968Z,9.48
2022-12-25T20:01:05.543Z,8.68
2022-12-25T20:03:33.799Z,9.25
2022-12-25T20:06:01.097Z,9.73
2022-12-25T20:08:28.081Z,13.73
2022-12-25T20:10:55.001Z,13.88
2022-12-25T20:13:21.776Z,9.93
2022-12-25T20:15:48.733Z,10.75
2022-12-25T20:18:16.871Z,11.00
2022-12-25T20:20:45.007Z,11.30
2022-12-25T20:23:11.710Z,8.57
2022-12-25T20:25:42.076Z,9.32
2022-12-25T20:28:09.152Z,9.38
2022-12-25T20:30:39.587Z,8.32
2022-12-25T20:33:06.376Z,8.68
2022-12-25T20:35:33.081Z,10.20
2022-12-25T20:37:59.695Z,9.98
2022-12-25T20:40:26.325Z,8.60
2022-12-25T20:42:53.001Z,10.20
2022-12-25T20:45:19.658Z,11.48
2022-12-25T20:47:46.273Z,12.38
2022-12-25T20:50:12.908Z,9.35
2022-12-25T20:52:39.496Z,9.88
2022-12-25T20:55:06.302Z,10.25
2022-12-25T20:57:33.734Z,11.27
2022-12-25T21:00:00.390Z,8.05
2022-12-25T21:02:35.515Z,7.43
2022-12-25T21:05:04.881Z,9.52
2022-12-25T21:07:31.559Z,9.88
2022-12-25T21:09:59.241Z,10.70
2022-12-25T21:12:26.339Z,8.18
2022-12-25T21:14:52.958Z,8.50
2022-12-25T21:17:19.593Z,8.20
2022-12-25T21:19:46.248Z,7.75
2022-12-25T21:22:12.899Z,7.40
2022-12-25T21:24:39.508Z,7.88
2022-12-25T21:27:06.105Z,8.38
2022-12-25T21:29:32.735Z,7.60
2022-12-25T21:32:17.836Z,8.85
2022-12-25T21:34:44.533Z,7.55
2022-12-25T21:37:11.144Z,6.35
2022-12-25T21:39:37.779Z,5.90
2022-12-25T21:42:04.699Z,7.85
2022-12-25T21:44:31.402Z,6.80
2022-12-25T21:46:58.000Z,7.30
2022-12-25T21:49:43.247Z,6.70
2022-12-25T21:52:09.907Z,7.63
2022-12-25T21:54:36.573Z,6.53
2022-12-25T21:57:03.479Z,6.32
2022-12-25T21:59:30.132Z,6.47
2022-12-25T22:01:56.901Z,5.75
2022-12-25T22:04:23.806Z,7.75
2022-12-25T22:07:09.367Z,6.18
2022-12-25T22:09:36.266Z,8.23
2022-12-25T22:12:22.192Z,7.45
2022-12-25T22:14:56.629Z,9.75
2022-12-25T22:17:46.596Z,8.57
2022-12-25T22:20:19.681Z,7.10
2022-12-25T22:22:46.476Z,7.40
2022-12-25T22:25:13.906Z,6.22
2022-12-25T22:27:42.292Z,7.10
2022-12-25T22:30:15.374Z,5.72
2022-12-25T22:32:42.383Z,7.70
2022-12-25T22:35:10.540Z,6.32
2022-12-25T22:37:37.254Z,6.57
2022-12-25T22:40:05.979Z,7.03
2022-12-25T22:42:32.922Z,5.63
2022-12-25T22:44:59.544Z,5.60
2022-12-25T22:47:26.152Z,5.20
2022-12-25T22:49:53.094Z,4.00
2022-12-25T22:52:19.900Z,4.22
2022-12-25T22:54:46.573Z,13.02
2022-12-25T22:57:13.208Z,12.48
2022-12-25T22:59:40.169Z,11.27
2022-12-25T23:02:06.928Z,5.03
2022-12-25T23:04:33.768Z,6.95
2022-12-25T23:07:00.504Z,6.28
2022-12-25T23:09:29.916Z,4.28
2022-12-25T23:11:58.014Z,5.20
2022-12-25T23:14:41.789Z,7.25
2022-12-25T23:17:31.537Z,5.03
2022-12-25T23:20:18.809Z,4.95
2022-12-25T23:23:04.873Z,4.70
2022-12-25T23:25:50.053Z,4.40
2022-12-25T23:28:36.631Z,4.15
2022-12-25T23:31:03.720Z,3.20
2022-12-25T23:33:30.367Z,3.63
2022-12-25T23:35:56.988Z,4.68
2022-12-25T23:38:23.693Z,3.90
2022-12-25T23:40:50.285Z,4.05
2022-12-25T23:43:16.914Z,4.43
2022-12-25T23:45:43.555Z,3.88
2022-12-25T23:48:10.180Z,4.65
2022-12-25T23:50:36.800Z,3.80
2022-12-25T23:53:03.409Z,3.08
2022-12-25T23:55:30.063Z,3.58
2022-12-25T23:57:56.671Z,4.13
